Time,TemperatureF,DewpointF,PressureIn,WindDirection,WindDirectionDegrees,WindSpeedMPH,WindSpeedGustMPH,Humidity,HourlyPrecipIn,Conditions,Clouds,dailyrainin,SolarRadiationWatts/m^2,SoftwareType,DateUTC
2013-04-03 00:03:00,31.0,14.0,-100.00,WSW,242,5.0,14.0,48,0.00,,,0.00,0.000000,,2013-04-03 04:03:00,
2013-04-03 00:13:00,31.0,14.0,-100.00,WSW,242,5.0,14.0,48,0.00,,,0.00,0.000000,,2013-04-03 04:13:00,
2013-04-03 00:23:00,31.0,14.0,-100.00,WSW,242,5.0,14.0,48,0.00,,,0.00,0.000000,,2013-04-03 04:23:00,
2013-04-03 00:33:00,31.0,14.0,-100.00,WSW,242,5.0,14.0,48,0.00,,,0.00,0.000000,,2013-04-03 04:33:00,
2013-04-03 01:03:00,32.0,13.0,-100.00,WSW,247,6.0,18.0,44,0.00,,,0.00,0.000000,,2013-04-03 05:03:00,
2013-04-03 01:13:00,32.0,13.0,-100.00,WSW,247,6.0,18.0,44,0.00,,,0.00,0.000000,,2013-04-03 05:13:00,
2013-04-03 01:22:00,32.0,13.0,-100.00,WSW,247,6.0,18.0,44,0.00,,,0.00,0.000000,,2013-04-03 05:22:00,
2013-04-03 01:32:00,32.0,13.0,-100.00,WSW,247,6.0,18.0,44,0.00,,,0.00,0.000000,,2013-04-03 05:32:00,
2013-04-03 02:03:00,31.0,15.0,-100.00,NW,321,7.0,16.0,51,0.00,,,0.00,0.000000,,2013-04-03 06:03:00,
2013-04-03 02:12:00,31.0,15.0,-100.00,NW,321,7.0,16.0,51,0.00,,,0.00,0.000000,,2013-04-03 06:12:00,
2013-04-03 02:22:00,31.0,15.0,-100.00,NW,321,7.0,16.0,51,0.00,,,0.00,0.000000,,2013-04-03 06:22:00,
2013-04-03 02:32:00,31.0,15.0,-100.00,NW,321,7.0,16.0,51,0.00,,,0.00,0.000000,,2013-04-03 06:32:00,
2013-04-03 03:02:00,30.0,19.0,-100.00,WSW,243,6.0,17.0,62,0.00,,,0.00,0.000000,,2013-04-03 07:02:00,
2013-04-03 03:12:00,30.0,19.0,-100.00,WSW,243,6.0,17.0,62,0.00,,,0.00,0.000000,,2013-04-03 07:12:00,
2013-04-03 03:23:00,30.0,19.0,-100.00,WSW,243,6.0,17.0,62,0.00,,,0.00,0.000000,,2013-04-03 07:23:00,
2013-04-03 03:33:00,30.0,19.0,-100.00,WSW,243,6.0,17.0,62,0.00,,,0.00,0.000000,,2013-04-03 07:33:00,
2013-04-03 04:03:00,30.0,17.0,-100.00,West,279,6.0,15.0,57,0.00,,,0.00,0.000000,,2013-04-03 08:03:00,
2013-04-03 04:12:00,30.0,17.0,-100.00,West,279,6.0,15.0,57,0.00,,,0.00,0.000000,,2013-04-03 08:12:00,
2013-04-03 04:22:00,30.0,17.0,-100.00,West,279,6.0,15.0,57,0.00,,,0.00,0.000000,,2013-04-03 08:22:00,
2013-04-03 04:32:00,30.0,17.0,-100.00,West,279,6.0,15.0,57,0.00,,,0.00,0.000000,,2013-04-03 08:32:00,
2013-04-03 05:02:00,30.0,12.0,-100.00,NNW,339,5.0,19.0,47,0.00,,,0.00,0.000000,,2013-04-03 09:02:00,
2013-04-03 05:12:00,30.0,12.0,-100.00,NNW,339,5.0,19.0,47,0.00,,,0.00,0.000000,,2013-04-03 09:12:00,
2013-04-03 05:22:00,30.0,12.0,-100.00,NNW,339,5.0,19.0,47,0.00,,,0.00,0.000000,,2013-04-03 09:22:00,
2013-04-03 05:33:00,30.0,12.0,-100.00,NNW,339,5.0,19.0,47,0.00,,,0.00,0.000000,,2013-04-03 09:33:00,
2013-04-03 06:03:00,29.0,12.0,-100.00,West,264,5.0,19.0,48,0.00,,,0.00,0.000000,,2013-04-03 10:03:00,
2013-04-03 06:12:00,29.0,12.0,-100.00,West,264,5.0,19.0,48,0.00,,,0.00,0.000000,,2013-04-03 10:12:00,
2013-04-03 06:22:00,29.0,12.0,-100.00,West,264,5.0,19.0,48,0.00,,,0.00,0.000000,,2013-04-03 10:22:00,
2013-04-03 06:33:00,29.0,12.0,-100.00,West,264,5.0,19.0,48,0.00,,,0.00,0.000000,,2013-04-03 10:33:00,
2013-04-03 07:02:00,30.0,11.0,-100.00,WNW,296,5.0,18.0,45,0.00,,,0.00,7.000000,,2013-04-03 11:02:00,
2013-04-03 07:12:00,30.0,11.0,-100.00,WNW,296,5.0,18.0,45,0.00,,,0.00,7.000000,,2013-04-03 11:12:00,
2013-04-03 07:23:00,30.0,11.0,-100.00,WNW,296,5.0,18.0,45,0.00,,,0.00,7.000000,,2013-04-03 11:23:00,
2013-04-03 07:32:00,30.0,11.0,-100.00,WNW,296,5.0,18.0,45,0.00,,,0.00,7.000000,,2013-04-03 11:32:00,
2013-04-03 08:02:00,32.0,10.0,-100.00,WNW,283,6.0,16.0,39,0.00,,,0.00,92.000000,,2013-04-03 12:02:00,
2013-04-03 08:13:00,32.0,10.0,-100.00,WNW,283,6.0,16.0,39,0.00,,,0.00,92.000000,,2013-04-03 12:13:00,
2013-04-03 08:22:00,32.0,10.0,-100.00,WNW,283,6.0,16.0,39,0.00,,,0.00,92.000000,,2013-04-03 12:22:00,
2013-04-03 08:33:00,32.0,10.0,-100.00,WNW,283,6.0,16.0,39,0.00,,,0.00,92.000000,,2013-04-03 12:33:00,
2013-04-03 09:02:00,34.0,11.0,-100.00,West,273,6.0,15.0,38,0.00,,,0.00,259.000000,,2013-04-03 13:02:00,
2013-04-03 09:13:00,34.0,11.0,-100.00,West,273,6.0,15.0,38,0.00,,,0.00,259.000000,,2013-04-03 13:13:00,
2013-04-03 09:22:00,34.0,11.0,-100.00,West,273,6.0,15.0,38,0.00,,,0.00,259.000000,,2013-04-03 13:22:00,
2013-04-03 09:32:00,34.0,11.0,-100.00,West,273,6.0,15.0,38,0.00,,,0.00,259.000000,,2013-04-03 13:32:00,
2013-04-03 10:02:00,36.0,12.0,-100.00,WSW,250,6.0,17.0,37,0.00,,,0.00,442.000000,,2013-04-03 14:02:00,
2013-04-03 10:13:00,36.0,12.0,-100.00,WSW,250,6.0,17.0,37,0.00,,,0.00,442.000000,,2013-04-03 14:13:00,
2013-04-03 10:22:00,36.0,12.0,-100.00,WSW,250,6.0,17.0,37,0.00,,,0.00,442.000000,,2013-04-03 14:22:00,
2013-04-03 10:32:00,36.0,12.0,-100.00,WSW,250,6.0,17.0,37,0.00,,,0.00,442.000000,,2013-04-03 14:32:00,
2013-04-03 11:03:00,39.0,12.0,-100.00,West,273,5.0,15.0,32,0.00,,,0.00,705.000000,,2013-04-03 15:03:00,
2013-04-03 11:13:00,39.0,12.0,-100.00,West,273,5.0,15.0,32,0.00,,,0.00,705.000000,,2013-04-03 15:13:00,
2013-04-03 11:23:00,39.0,12.0,-100.00,West,273,5.0,15.0,32,0.00,,,0.00,705.000000,,2013-04-03 15:23:00,
2013-04-03 11:33:00,39.0,12.0,-100.00,West,273,5.0,15.0,32,0.00,,,0.00,705.000000,,2013-04-03 15:33:00,
2013-04-03 12:04:00,41.0,13.0,-100.00,NW,316,5.0,12.0,31,0.00,,,0.00,666.000000,,2013-04-03 16:04:00,
2013-04-03 12:13:00,41.0,13.0,-100.00,NW,316,5.0,12.0,31,0.00,,,0.00,666.000000,,2013-04-03 16:13:00,
2013-04-03 12:25:00,41.0,13.0,-100.00,NW,316,5.0,12.0,31,0.00,,,0.00,666.000000,,2013-04-03 16:25:00,
2013-04-03 12:33:00,41.0,13.0,-100.00,NW,316,5.0,12.0,31,0.00,,,0.00,666.000000,,2013-04-03 16:33:00,
2013-04-03 13:03:00,42.0,13.0,-100.00,NW,319,5.0,16.0,30,0.00,,,0.00,682.000000,,2013-04-03 17:03:00,
2013-04-03 13:14:00,42.0,13.0,-100.00,NW,319,5.0,16.0,30,0.00,,,0.00,682.000000,,2013-04-03 17:14:00,
2013-04-03 13:23:00,42.0,13.0,-100.00,NW,319,5.0,16.0,30,0.00,,,0.00,682.000000,,2013-04-03 17:23:00,
2013-04-03 13:33:00,42.0,13.0,-100.00,NW,319,5.0,16.0,30,0.00,,,0.00,682.000000,,2013-04-03 17:33:00,
2013-04-03 13:54:00,42.0,14.0,-100.00,NNW,327,7.0,19.0,31,0.00,,,0.00,848.000000,,2013-04-03 17:54:00,
2013-04-03 14:03:00,42.0,14.0,-100.00,NNW,327,7.0,19.0,31,0.00,,,0.00,848.000000,,2013-04-03 18:03:00,
2013-04-03 14:13:00,42.0,14.0,-100.00,NNW,327,7.0,19.0,31,0.00,,,0.00,848.000000,,2013-04-03 18:13:00,
2013-04-03 14:23:00,42.0,14.0,-100.00,NNW,327,7.0,19.0,31,0.00,,,0.00,848.000000,,2013-04-03 18:23:00,
2013-04-03 14:33:00,42.0,14.0,-100.00,NNW,327,7.0,19.0,31,0.00,,,0.00,848.000000,,2013-04-03 18:33:00,
2013-04-03 15:03:00,43.0,14.0,-100.00,NW,321,8.0,17.0,31,0.00,,,0.00,676.000000,,2013-04-03 19:03:00,
2013-04-03 15:13:00,43.0,14.0,-100.00,NW,321,8.0,17.0,31,0.00,,,0.00,676.000000,,2013-04-03 19:13:00,
2013-04-03 15:22:00,43.0,14.0,-100.00,NW,321,8.0,17.0,31,0.00,,,0.00,676.000000,,2013-04-03 19:22:00,
2013-04-03 15:32:00,43.0,14.0,-100.00,NW,321,8.0,17.0,31,0.00,,,0.00,676.000000,,2013-04-03 19:32:00,
2013-04-03 16:13:00,44.0,16.0,-100.00,NW,317,6.0,15.0,32,0.00,,,0.00,739.000000,,2013-04-03 20:13:00,
2013-04-03 16:23:00,44.0,16.0,-100.00,NW,317,6.0,15.0,32,0.00,,,0.00,739.000000,,2013-04-03 20:23:00,
2013-04-03 16:33:00,44.0,16.0,-100.00,NW,317,6.0,15.0,32,0.00,,,0.00,739.000000,,2013-04-03 20:33:00,
2013-04-03 17:03:00,43.0,17.0,-100.00,NW,321,8.0,16.0,35,0.00,,,0.00,575.000000,,2013-04-03 21:03:00,
2013-04-03 17:12:00,43.0,17.0,-100.00,NW,321,8.0,16.0,35,0.00,,,0.00,575.000000,,2013-04-03 21:12:00,
2013-04-03 17:22:00,43.0,17.0,-100.00,NW,321,8.0,16.0,35,0.00,,,0.00,575.000000,,2013-04-03 21:22:00,
2013-04-03 17:33:00,43.0,17.0,-100.00,NW,321,8.0,16.0,35,0.00,,,0.00,575.000000,,2013-04-03 21:33:00,
2013-04-03 18:02:00,40.0,18.0,-100.00,NW,321,7.0,18.0,41,0.00,,,0.00,347.000000,,2013-04-03 22:02:00,
2013-04-03 18:13:00,40.0,18.0,-100.00,NW,321,7.0,18.0,41,0.00,,,0.00,347.000000,,2013-04-03 22:13:00,
2013-04-03 18:22:00,40.0,18.0,-100.00,NW,321,7.0,18.0,41,0.00,,,0.00,347.000000,,2013-04-03 22:22:00,
2013-04-03 18:33:00,40.0,18.0,-100.00,NW,321,7.0,18.0,41,0.00,,,0.00,347.000000,,2013-04-03 22:33:00,
2013-04-03 19:02:00,37.0,18.0,-100.00,NW,321,8.0,19.0,46,0.00,,,0.00,68.000000,,2013-04-03 23:02:00,
2013-04-03 19:12:00,37.0,18.0,-100.00,NW,321,8.0,19.0,46,0.00,,,0.00,68.000000,,2013-04-03 23:12:00,
2013-04-03 19:22:00,37.0,18.0,-100.00,NW,321,8.0,19.0,46,0.00,,,0.00,68.000000,,2013-04-03 23:22:00,
2013-04-03 19:33:00,37.0,18.0,-100.00,NW,321,8.0,19.0,46,0.00,,,0.00,68.000000,,2013-04-03 23:33:00,
2013-04-03 20:03:00,36.0,18.0,-100.00,NNW,330,7.0,22.0,47,0.00,,,0.00,7.000000,,2013-04-04 00:03:00,
2013-04-03 20:12:00,36.0,18.0,-100.00,NNW,330,7.0,22.0,47,0.00,,,0.00,7.000000,,2013-04-04 00:12:00,
2013-04-03 20:22:00,36.0,18.0,-100.00,NNW,330,7.0,22.0,47,0.00,,,0.00,7.000000,,2013-04-04 00:22:00,
2013-04-03 20:32:00,36.0,18.0,-100.00,NNW,330,7.0,22.0,47,0.00,,,0.00,7.000000,,2013-04-04 00:32:00,
2013-04-03 21:02:00,35.0,18.0,-100.00,NNW,330,7.0,20.0,50,0.00,,,0.00,0.000000,,2013-04-04 01:02:00,
2013-04-03 21:12:00,35.0,18.0,-100.00,NNW,330,7.0,20.0,50,0.00,,,0.00,0.000000,,2013-04-04 01:12:00,
2013-04-03 21:22:00,35.0,18.0,-100.00,NNW,330,7.0,20.0,50,0.00,,,0.00,0.000000,,2013-04-04 01:22:00,
2013-04-03 21:32:00,35.0,18.0,-100.00,NNW,330,7.0,20.0,50,0.00,,,0.00,0.000000,,2013-04-04 01:32:00,
2013-04-03 22:02:00,34.0,18.0,-100.00,NW,316,8.0,16.0,52,0.00,,,0.00,0.000000,,2013-04-04 02:02:00,
2013-04-03 22:12:00,34.0,18.0,-100.00,NW,316,8.0,16.0,52,0.00,,,0.00,0.000000,,2013-04-04 02:12:00,
2013-04-03 22:22:00,34.0,18.0,-100.00,NW,316,8.0,16.0,52,0.00,,,0.00,0.000000,,2013-04-04 02:22:00,
2013-04-03 22:32:00,34.0,18.0,-100.00,NW,316,8.0,16.0,52,0.00,,,0.00,0.000000,,2013-04-04 02:32:00,
2013-04-03 23:02:00,33.0,17.0,-100.00,NW,324,8.0,19.0,52,0.00,,,0.00,0.000000,,2013-04-04 03:02:00,
2013-04-03 23:12:00,33.0,17.0,-100.00,NW,324,8.0,19.0,52,0.00,,,0.00,0.000000,,2013-04-04 03:12:00,
2013-04-03 23:23:00,33.0,17.0,-100.00,NW,324,8.0,19.0,52,0.00,,,0.00,0.000000,,2013-04-04 03:23:00,
2013-04-03 23:33:00,33.0,17.0,-100.00,NW,324,8.0,19.0,52,0.00,,,0.00,0.000000,,2013-04-04 03:33:00,